Time;durP1;ratioP1;P1;durP2;ratioP2;P2;SDS_P1;SDS_P2;PMS_P1;PMS_P2;Temp;Humidity;BMP_temperature;BMP_pressure;BME280_temperature;BME280_humidity;BME280_pressure;Samples;Min_cycle;Max_cycle;Signal;HPM_P1;HPM_P2
2022/10/05 00:01:29;;;;;;;9.67;5.80;;;;;;;11.75;100.00;99520.97;5007868;28;20198;-79
2022/10/05 00:04:13;;;;;;;8.80;5.93;;;;;;;11.73;100.00;99517.56;5027506;28;20268;-79
2022/10/05 00:06:44;;;;;;;7.63;5.90;;;;;;;11.60;100.00;99529.03;5025007;28;20190;-79
2022/10/05 00:09:19;;;;;;;10.13;5.50;;;;;;;11.57;100.00;99529.22;5031834;28;20228;-79
2022/10/05 00:11:50;;;;;;;8.57;5.50;;;;;;;11.61;100.00;99523.63;5028943;28;20663;-79
2022/10/05 00:14:20;;;;;;;10.63;6.20;;;;;;;11.71;100.00;99518.59;5088394;28;20203;-79
2022/10/05 00:16:49;;;;;;;8.47;5.80;;;;;;;11.70;100.00;99520.41;5113389;28;20199;-79
2022/10/05 00:19:25;;;;;;;8.90;6.10;;;;;;;11.71;100.00;99506.19;5116587;27;20187;-79
2022/10/05 00:21:56;;;;;;;9.27;5.57;;;;;;;11.68;100.00;99506.41;5116402;27;20692;-79
2022/10/05 00:24:26;;;;;;;10.13;6.30;;;;;;;11.61;100.00;99502.41;5111678;28;20211;-79
2022/10/05 00:26:54;;;;;;;10.93;5.60;;;;;;;11.56;100.00;99500.97;5115347;28;20209;-79
2022/10/05 00:29:25;;;;;;;9.10;6.37;;;;;;;11.49;100.00;99502.34;5109980;28;20191;-78
2022/10/05 00:31:53;;;;;;;13.37;6.83;;;;;;;11.43;100.00;99499.09;5119074;27;20187;-79
2022/10/05 00:34:22;;;;;;;11.70;6.80;;;;;;;11.43;100.00;99500.91;5114620;28;20198;-79
2022/10/05 00:36:51;;;;;;;10.80;6.20;;;;;;;11.34;100.00;99499.66;5116222;27;20248;-78
2022/10/05 00:39:23;;;;;;;10.50;7.00;;;;;;;11.24;100.00;99513.59;5101212;28;20206;-78
2022/10/05 00:42:10;;;;;;;11.77;6.73;;;;;;;11.31;100.00;99512.28;5114921;28;20183;-79
2022/10/05 00:44:45;;;;;;;14.77;7.37;;;;;;;11.39;100.00;99510.88;5116288;28;20210;-78
2022/10/05 00:47:33;;;;;;;11.17;7.00;;;;;;;11.33;100.00;99503.28;5110258;28;20275;-78
2022/10/05 00:50:26;;;;;;;13.37;7.20;;;;;;;11.21;100.00;99495.22;5113483;28;20244;-78
2022/10/05 00:53:01;;;;;;;11.00;6.73;;;;;;;11.10;100.00;99504.69;5114731;28;20232;-79
2022/10/05 00:55:42;;;;;;;10.37;7.33;;;;;;;11.07;100.00;99512.81;5113152;28;20196;-78
2022/10/05 00:58:23;;;;;;;8.27;7.13;;;;;;;11.14;100.00;99523.91;5112808;28;20232;-78
2022/10/05 01:01:05;;;;;;;11.43;7.13;;;;;;;11.13;100.00;99535.44;5117372;27;20218;-78
2022/10/05 01:03:48;;;;;;;13.87;7.77;;;;;;;11.14;100.00;99527.41;5112687;28;20217;-79
2022/10/05 01:06:26;;;;;;;12.70;7.23;;;;;;;11.17;100.00;99531.66;5090946;28;20191;-78
2022/10/05 01:09:03;;;;;;;10.80;7.20;;;;;;;10.92;100.00;99531.44;5115815;28;20191;-79
2022/10/05 01:11:38;;;;;;;9.10;7.50;;;;;;;11.14;100.00;99537.16;5113060;28;20206;-78
2022/10/05 01:14:17;;;;;;;9.33;6.23;;;;;;;10.96;100.00;99541.75;5109489;28;20218;-79
2022/10/05 01:16:53;;;;;;;9.60;6.57;;;;;;;10.93;100.00;99533.16;5112900;28;20187;-79
2022/10/05 01:19:48;;;;;;;10.27;6.60;;;;;;;10.72;100.00;99535.28;5111693;28;20187;-78
2022/10/05 01:22:30;;;;;;;12.47;6.87;;;;;;;10.84;100.00;99535.38;5114063;28;20191;-79
2022/10/05 01:25:18;;;;;;;11.77;6.97;;;;;;;10.93;100.00;99534.00;5072052;28;20313;-78
2022/10/05 01:28:06;;;;;;;10.83;7.23;;;;;;;10.89;100.00;99520.06;5065847;28;20567;-78
2022/10/05 01:30:40;;;;;;;10.03;6.90;;;;;;;10.69;100.00;99522.19;5067241;28;20203;-78
2022/10/05 01:33:17;;;;;;;12.63;7.37;;;;;;;10.80;100.00;99514.44;5012564;28;20342;-78
2022/10/05 01:35:54;;;;;;;10.90;7.63;;;;;;;10.79;100.00;99510.94;5012455;28;20260;-78
2022/10/05 01:38:36;;;;;;;10.57;7.77;;;;;;;10.81;100.00;99502.94;5012937;28;20235;-78
2022/10/05 01:41:18;;;;;;;10.73;7.53;;;;;;;10.70;100.00;99498.25;5010161;28;20245;-78
2022/10/05 01:43:52;;;;;;;10.07;7.47;;;;;;;10.64;100.00;99490.69;5054064;28;20220;-78
2022/10/05 01:46:27;;;;;;;12.13;7.37;;;;;;;10.60;100.00;99489.13;5071903;28;20200;-79
2022/10/05 01:49:10;;;;;;;10.53;7.53;;;;;;;10.52;100.00;99488.75;5065334;28;20216;-78
2022/10/05 01:51:46;;;;;;;13.87;7.40;;;;;;;10.43;100.00;99481.34;5096323;28;20252;-79
2022/10/05 01:54:28;;;;;;;11.80;7.50;;;;;;;10.44;100.00;99477.75;5114718;28;20243;-79
2022/10/05 01:57:06;;;;;;;9.60;7.60;;;;;;;10.46;100.00;99478.50;5110934;28;20212;-79
2022/10/05 01:59:56;;;;;;;11.80;7.70;;;;;;;10.53;100.00;99472.78;5117649;28;20187;-79
2022/10/05 02:02:28;;;;;;;10.13;7.47;;;;;;;10.46;100.00;99460.81;5119920;28;20220;-79
2022/10/05 02:05:10;;;;;;;11.97;7.60;;;;;;;10.39;100.00;99461.25;5115952;28;20215;-78
2022/10/05 02:07:44;;;;;;;12.70;7.83;;;;;;;10.32;100.00;99458.97;5113232;28;20214;-79
2022/10/05 02:10:21;;;;;;;11.57;7.80;;;;;;;10.32;100.00;99458.97;5115614;28;20182;-78
2022/10/05 02:12:53;;;;;;;9.63;7.70;;;;;;;10.23;100.00;99459.53;5112945;28;20193;-78
2022/10/05 02:15:29;;;;;;;11.07;7.53;;;;;;;10.24;100.00;99455.94;5096510;28;20195;-77
2022/10/05 02:18:10;;;;;;;12.03;7.80;;;;;;;10.17;100.00;99456.34;5105677;28;20202;-78
2022/10/05 02:20:42;;;;;;;13.13;7.80;;;;;;;10.16;100.00;99458.13;5094673;28;20245;-78
2022/10/05 02:23:18;;;;;;;13.13;8.03;;;;;;;10.24;100.00;99460.38;5109153;28;20660;-78
2022/10/05 02:25:52;;;;;;;12.07;7.97;;;;;;;10.25;100.00;99460.28;5115914;27;20223;-78
2022/10/05 02:28:23;;;;;;;13.63;8.07;;;;;;;10.32;100.00;99468.69;5117638;28;20195;-79
2022/10/05 02:30:58;;;;;;;11.07;8.23;;;;;;;10.33;100.00;99473.09;5119519;28;20195;-78
2022/10/05 02:33:29;;;;;;;13.13;7.90;;;;;;;10.31;100.00;99473.13;5110890;28;20210;-77
2022/10/05 02:36:01;;;;;;;12.57;8.20;;;;;;;10.36;100.00;99477.34;5108648;28;20227;-78
2022/10/05 02:38:40;;;;;;;11.27;7.50;;;;;;;10.32;100.00;99479.28;5114037;28;20248;-78
2022/10/05 02:41:18;;;;;;;9.83;7.50;;;;;;;10.20;100.00;99480.81;5112895;28;20187;-77
2022/10/05 02:43:57;;;;;;;12.23;8.10;;;;;;;10.21;100.00;99477.22;5116509;27;20240;-78
2022/10/05 02:46:35;;;;;;;12.77;7.90;;;;;;;10.20;100.00;99483.47;5114457;27;20230;-79
2022/10/05 02:49:18;;;;;;;12.27;8.10;;;;;;;10.22;100.00;99476.31;5087366;28;20194;-78
2022/10/05 02:51:53;;;;;;;9.47;7.77;;;;;;;10.00;100.00;99473.16;5091506;28;20196;-78
2022/10/05 02:54:35;;;;;;;15.17;8.13;;;;;;;10.09;100.00;99477.94;5083726;28;20195;-78
2022/10/05 02:57:17;;;;;;;13.83;8.57;;;;;;;10.04;100.00;99477.38;5092817;28;20258;-78
2022/10/05 02:59:50;;;;;;;10.07;8.10;;;;;;;10.18;100.00;99484.50;5089815;28;20187;-78
2022/10/05 03:02:24;;;;;;;14.17;8.50;;;;;;;9.92;100.00;99472.75;5088480;28;20192;-79
2022/10/05 03:05:05;;;;;;;12.23;9.13;;;;;;;10.07;100.00;99479.81;5083251;28;20224;-78
2022/10/05 03:07:40;;;;;;;14.47;8.90;;;;;;;10.11;100.00;99477.84;5103210;28;20230;-78
2022/10/05 03:10:15;;;;;;;13.10;8.07;;;;;;;10.16;100.00;99483.75;5114089;27;20237;-79
2022/10/05 03:12:52;;;;;;;12.80;8.70;;;;;;;10.05;100.00;99476.41;5112151;28;20194;-79
2022/10/05 03:15:42;;;;;;;16.00;9.20;;;;;;;9.99;100.00;99484.69;5113035;28;20673;-78
2022/10/05 03:18:25;;;;;;;12.93;8.60;;;;;;;9.95;100.00;99488.47;5113317;28;20291;-79
2022/10/05 03:21:08;;;;;;;14.57;9.33;;;;;;;9.97;100.00;99490.06;5112180;28;20249;-79
2022/10/05 03:23:48;;;;;;;14.07;8.50;;;;;;;10.01;100.00;99483.66;5112584;28;20195;-79
2022/10/05 03:26:29;;;;;;;13.07;8.40;;;;;;;10.01;100.00;99482.81;5109436;28;20213;-78
2022/10/05 03:29:03;;;;;;;12.63;8.10;;;;;;;9.93;100.00;99480.59;5111452;28;20287;-79
2022/10/05 03:31:40;;;;;;;12.10;7.37;;;;;;;9.83;100.00;99482.03;5110526;28;20195;-79
2022/10/05 03:34:15;;;;;;;9.37;7.10;;;;;;;9.75;100.00;99487.78;5110389;28;20245;-78
2022/10/05 03:36:49;;;;;;;10.03;7.30;;;;;;;9.87;100.00;99474.81;5107627;28;20194;-79
2022/10/05 03:39:24;;;;;;;12.40;7.50;;;;;;;9.87;100.00;99466.88;5110423;28;20642;-78
2022/10/05 03:41:58;;;;;;;10.23;7.67;;;;;;;9.94;100.00;99465.56;5109809;28;20198;-78
2022/10/05 03:44:36;;;;;;;10.77;8.20;;;;;;;9.78;100.00;99470.88;5119994;27;20195;-79
2022/10/05 03:47:13;;;;;;;12.93;9.00;;;;;;;9.54;100.00;99451.91;5092675;28;20202;-79
2022/10/05 03:49:57;;;;;;;16.63;8.90;;;;;;;9.80;100.00;99453.13;5094944;28;20195;-79
2022/10/05 03:52:36;;;;;;;11.40;9.07;;;;;;;9.73;100.00;99449.97;5091677;28;20428;-79
2022/10/05 03:55:15;;;;;;;12.70;9.60;;;;;;;9.66;100.00;99448.63;5091128;28;20381;-78
2022/10/05 03:57:45;;;;;;;13.80;10.23;;;;;;;9.65;100.00;99460.13;5087113;28;20308;-79
2022/10/05 04:00:17;;;;;;;17.10;10.67;;;;;;;9.65;100.00;99461.91;5092318;28;20192;-78
2022/10/05 04:02:55;;;;;;;13.57;9.90;;;;;;;9.70;100.00;99463.38;5078018;28;20188;-78
2022/10/05 04:05:29;;;;;;;16.17;10.27;;;;;;;9.69;100.00;99464.31;5090340;28;20215;-79
2022/10/05 04:08:03;;;;;;;15.83;10.77;;;;;;;9.80;100.00;99457.56;5091723;28;20187;-79
2022/10/05 04:10:40;;;;;;;14.87;10.87;;;;;;;9.69;100.00;99460.81;5094663;28;20188;-79
2022/10/05 04:13:16;;;;;;;16.70;10.87;;;;;;;9.74;100.00;99470.19;5114582;28;20198;-79
2022/10/05 04:15:50;;;;;;;17.37;11.47;;;;;;;9.74;100.00;99462.25;5119326;27;20230;-78
2022/10/05 04:18:25;;;;;;;18.23;13.40;;;;;;;9.72;100.00;99471.22;5115207;28;20254;-78
2022/10/05 04:21:01;;;;;;;19.43;12.50;;;;;;;9.81;100.00;99467.19;5106692;28;20226;-78
2022/10/05 04:23:41;;;;;;;22.13;12.97;;;;;;;9.59;100.00;99473.69;5114072;28;20264;-79
2022/10/05 04:26:14;;;;;;;17.87;12.97;;;;;;;9.77;100.00;99476.25;5113232;28;20214;-79
2022/10/05 04:28:52;;;;;;;20.83;14.80;;;;;;;9.83;100.00;99470.59;5112263;28;20669;-78
2022/10/05 04:31:34;;;;;;;23.50;14.80;;;;;;;9.85;100.00;99468.75;5116193;28;20269;-78
2022/10/05 04:34:22;;;;;;;24.90;17.37;;;;;;;9.88;100.00;99471.22;5115083;28;20189;-78
2022/10/05 04:37:00;;;;;;;25.70;15.77;;;;;;;9.90;100.00;99471.97;5111540;28;20199;-78
2022/10/05 04:39:41;;;;;;;29.87;18.37;;;;;;;10.00;100.00;99475.81;5114868;28;20187;-78
2022/10/05 04:42:15;;;;;;;27.17;17.87;;;;;;;10.02;100.00;99473.94;5112220;28;20214;-78
2022/10/05 04:45:02;;;;;;;34.53;18.83;;;;;;;10.02;100.00;99490.66;5111349;28;20190;-78
2022/10/05 04:47:54;;;;;;;30.90;18.53;;;;;;;10.07;100.00;99493.06;5116006;28;20191;-78
2022/10/05 04:50:33;;;;;;;27.47;19.33;;;;;;;10.05;100.00;99494.94;5112068;28;20233;-78
2022/10/05 04:53:13;;;;;;;76.37;22.23;;;;;;;9.96;100.00;99501.59;5118076;27;20214;-78
2022/10/05 04:55:55;;;;;;;64.77;21.50;;;;;;;9.96;100.00;99511.34;5116230;28;20653;-78
2022/10/05 04:58:44;;;;;;;96.97;22.97;;;;;;;9.91;100.00;99519.50;5115425;28;20191;-79
2022/10/05 05:01:30;;;;;;;103.27;24.33;;;;;;;9.89;100.00;99523.19;5116106;28;20190;-78
2022/10/05 05:04:21;;;;;;;97.23;23.73;;;;;;;9.92;100.00;99521.22;5115976;27;20626;-78
2022/10/05 05:06:57;;;;;;;113.30;25.97;;;;;;;9.88;100.00;99521.50;5111979;28;20211;-78
2022/10/05 05:09:57;;;;;;;182.40;29.20;;;;;;;9.82;100.00;99538.53;5111404;28;20271;-78
2022/10/05 05:12:40;;;;;;;89.80;24.57;;;;;;;9.89;100.00;99534.63;5111983;28;20247;-79
2022/10/05 05:15:43;;;;;;;153.10;28.57;;;;;;;9.92;100.00;99539.75;5110382;28;20207;-78
2022/10/05 05:18:38;;;;;;;71.77;23.17;;;;;;;10.01;100.00;99541.03;5114376;28;20282;-78
2022/10/05 05:21:19;;;;;;;40.23;23.40;;;;;;;10.06;100.00;99540.78;5115176;28;20215;-78
2022/10/05 05:23:54;;;;;;;117.47;26.30;;;;;;;10.03;100.00;99537.34;5115685;28;20194;-78
2022/10/05 05:26:30;;;;;;;94.47;26.33;;;;;;;10.02;100.00;99530.34;5109128;28;20211;-79
2022/10/05 05:29:14;;;;;;;81.93;24.50;;;;;;;10.09;100.00;99528.22;5113167;28;20187;-79
2022/10/05 05:31:52;;;;;;;112.30;25.40;;;;;;;9.97;100.00;99526.28;5109180;28;20244;-78
2022/10/05 05:34:39;;;;;;;106.60;24.83;;;;;;;9.92;100.00;99530.94;5114925;28;20222;-78
2022/10/05 05:37:17;;;;;;;83.20;22.63;;;;;;;9.88;100.00;99538.22;5114186;28;20191;-79
2022/10/05 05:39:59;;;;;;;91.63;21.97;;;;;;;9.85;100.00;99533.09;5115041;28;20237;-79
2022/10/05 05:42:39;;;;;;;81.20;22.20;;;;;;;9.94;100.00;99524.66;5109924;28;20188;-78
2022/10/05 05:45:16;;;;;;;60.10;22.53;;;;;;;9.91;100.00;99526.59;5115219;28;20187;-78
2022/10/05 05:47:52;;;;;;;74.03;21.57;;;;;;;9.83;100.00;99528.81;5113914;28;20209;-78
2022/10/05 05:50:33;;;;;;;92.90;24.20;;;;;;;9.82;100.00;99527.09;5110751;28;20199;-78
2022/10/05 05:53:10;;;;;;;51.40;20.93;;;;;;;9.95;100.00;99523.72;5109549;28;20191;-79
2022/10/05 05:55:42;;;;;;;90.67;22.73;;;;;;;9.97;100.00;99523.63;5114541;28;20191;-78
2022/10/05 05:58:20;;;;;;;74.67;22.67;;;;;;;9.92;100.00;99523.88;5110999;28;20223;-78
2022/10/05 06:00:58;;;;;;;62.50;22.57;;;;;;;9.95;100.00;99514.94;5113031;27;20203;-78
2022/10/05 06:03:32;;;;;;;80.03;22.50;;;;;;;9.93;100.00;99522.06;5109321;28;20218;-78
2022/10/05 06:06:04;;;;;;;118.47;25.87;;;;;;;9.94;100.00;99531.72;5113672;28;20214;-78
2022/10/05 06:08:38;;;;;;;74.83;23.07;;;;;;;9.96;100.00;99535.16;5114931;27;20231;-78
2022/10/05 06:11:12;;;;;;;118.93;25.87;;;;;;;10.04;100.00;99539.09;5112469;27;20275;-78
2022/10/05 06:13:42;;;;;;;149.23;25.03;;;;;;;10.13;100.00;99536.84;5110295;28;20290;-78
2022/10/05 06:16:21;;;;;;;118.27;26.37;;;;;;;10.11;100.00;99546.66;5109118;28;20213;-78
2022/10/05 06:18:59;;;;;;;73.47;24.10;;;;;;;10.10;100.00;99545.81;5113867;27;20195;-78
2022/10/05 06:21:36;;;;;;;189.87;32.67;;;;;;;9.95;100.00;99550.19;5115073;27;20226;-78
2022/10/05 06:24:12;;;;;;;78.37;26.00;;;;;;;10.11;100.00;99555.47;5114288;28;20237;-79
2022/10/05 06:27:09;;;;;;;149.53;28.77;;;;;;;10.17;100.00;99562.22;5112773;28;20217;-79
2022/10/05 06:29:58;;;;;;;138.00;28.70;;;;;;;10.22;100.00;99557.53;5110291;28;20187;-78
2022/10/05 06:32:31;;;;;;;186.30;32.57;;;;;;;10.17;100.00;99570.16;5110640;28;20683;-78
2022/10/05 06:35:09;;;;;;;81.27;27.63;;;;;;;10.24;100.00;99568.91;5112756;28;20203;-78
2022/10/05 06:37:55;;;;;;;104.27;28.87;;;;;;;10.34;100.00;99571.91;5111324;28;20191;-78
2022/10/05 06:40:39;;;;;;;65.53;26.30;;;;;;;10.28;100.00;99571.28;5111283;28;20314;-78
2022/10/05 06:43:33;;;;;;;76.83;27.53;;;;;;;10.33;100.00;99581.63;5113471;27;20219;-78
2022/10/05 06:46:09;;;;;;;89.40;29.70;;;;;;;10.27;100.00;99588.13;5113756;28;20233;-79
2022/10/05 06:49:02;;;;;;;51.83;26.63;;;;;;;10.52;100.00;99587.59;5113763;28;20187;-77
2022/10/05 06:51:41;;;;;;;44.43;26.93;;;;;;;10.51;100.00;99591.16;5109174;28;20187;-78
2022/10/05 06:54:25;;;;;;;46.63;27.03;;;;;;;10.59;100.00;99594.22;5114171;27;20207;-78
2022/10/05 06:57:02;;;;;;;43.87;26.13;;;;;;;10.77;100.00;99594.97;5112187;28;20198;-78
2022/10/05 06:59:43;;;;;;;47.70;28.03;;;;;;;10.86;100.00;99596.25;5114214;27;20230;-78
2022/10/05 07:02:23;;;;;;;45.23;26.17;;;;;;;10.84;100.00;99595.50;5092951;28;20215;-78
2022/10/05 07:05:26;;;;;;;40.60;25.50;;;;;;;10.98;100.00;99594.66;5084263;28;20206;-78
2022/10/05 07:07:59;;;;;;;42.80;26.63;;;;;;;11.06;100.00;99595.06;5089720;28;20233;-78
2022/10/05 07:10:40;;;;;;;39.87;25.10;;;;;;;11.13;100.00;99596.44;5091626;28;20679;-78
2022/10/05 07:13:34;;;;;;;43.17;25.60;;;;;;;11.03;100.00;99604.06;5088655;28;20188;-78
2022/10/05 07:16:13;;;;;;;45.77;25.97;;;;;;;11.05;100.00;99604.81;5085777;28;20222;-78
2022/10/05 07:18:54;;;;;;;41.53;25.00;;;;;;;11.20;100.00;99584.53;5084386;28;20199;-78
2022/10/05 07:21:38;;;;;;;50.30;27.83;;;;;;;11.08;100.00;99585.22;5110888;28;20709;-78
2022/10/05 07:24:23;;;;;;;62.83;29.03;;;;;;;11.20;100.00;99579.22;5111326;28;20191;-78
2022/10/05 07:27:00;;;;;;;53.13;29.10;;;;;;;11.26;100.00;99570.88;5110482;28;20245;-78
2022/10/05 07:29:34;;;;;;;58.87;28.93;;;;;;;11.22;100.00;99571.16;5108878;28;20252;-78
2022/10/05 07:32:15;;;;;;;57.33;29.07;;;;;;;11.19;100.00;99572.19;5109716;28;20194;-78
2022/10/05 07:34:53;;;;;;;51.33;29.47;;;;;;;11.31;100.00;99565.31;5049011;28;20193;-78
2022/10/05 07:40:23;;;;;;;67.80;30.67;;;;;;;11.26;100.00;99570.03;5050481;28;20247;-77
2022/10/05 07:43:02;;;;;;;56.33;30.73;;;;;;;11.42;100.00;99566.38;5043659;28;20209;-78
2022/10/05 07:45:40;;;;;;;53.90;31.03;;;;;;;11.35;100.00;99575.63;5050162;28;20220;-78
2022/10/05 07:48:17;;;;;;;56.57;30.23;;;;;;;11.44;100.00;99568.91;5045422;28;20307;-78
2022/10/05 07:50:59;;;;;;;58.70;31.23;;;;;;;11.37;100.00;99576.38;5050154;28;20238;-78
2022/10/05 07:53:37;;;;;;;63.00;30.57;;;;;;;11.48;100.00;99565.13;5050297;28;20647;-78
2022/10/05 07:56:14;;;;;;;52.63;29.67;;;;;;;11.46;100.00;99574.97;5002750;28;20294;-78
2022/10/05 07:58:47;;;;;;;69.97;29.87;;;;;;;11.63;100.00;99577.47;5014399;28;20239;-78
2022/10/05 08:01:22;;;;;;;61.13;30.23;;;;;;;11.68;100.00;99575.38;5112900;28;20198;-78
2022/10/05 08:03:55;;;;;;;49.53;28.27;;;;;;;11.68;100.00;99564.78;5108574;28;20203;-78
2022/10/05 08:06:46;;;;;;;53.27;29.40;;;;;;;11.69;100.00;99577.09;5105946;28;20187;-78
2022/10/05 08:09:37;;;;;;;62.83;29.27;;;;;;;11.70;100.00;99577.94;5109919;28;20191;-78
2022/10/05 08:12:16;;;;;;;79.93;29.70;;;;;;;11.64;100.00;99576.50;5108968;28;20195;-78
2022/10/05 08:14:52;;;;;;;62.23;27.93;;;;;;;11.75;100.00;99575.84;5113012;28;20225;-78
2022/10/05 08:17:32;;;;;;;54.00;27.80;;;;;;;11.71;100.00;99571.69;5112903;28;20466;-77
2022/10/05 08:20:15;;;;;;;64.57;28.70;;;;;;;11.66;100.00;99582.56;5112865;28;20195;-78
2022/10/05 08:22:52;;;;;;;59.93;27.40;;;;;;;11.73;100.00;99573.28;5113785;27;20218;-78
2022/10/05 08:25:26;;;;;;;247.03;35.47;;;;;;;11.71;100.00;99577.00;5115500;27;20219;-78
2022/10/05 08:28:03;;;;;;;77.43;28.23;;;;;;;11.69;100.00;99582.41;5109905;28;20242;-78
2022/10/05 08:30:49;;;;;;;49.63;26.47;;;;;;;11.85;100.00;99581.47;5110620;28;20190;-78
2022/10/05 08:33:19;;;;;;;56.70;29.63;;;;;;;11.69;100.00;99582.41;5111834;28;20199;-78
2022/10/05 08:35:54;;;;;;;54.83;28.63;;;;;;;11.79;100.00;99590.63;5118868;27;20264;-78
2022/10/05 08:38:31;;;;;;;61.07;29.20;;;;;;;11.71;100.00;99585.81;5118782;27;20232;-78
2022/10/05 08:41:38;;;;;;;56.47;29.17;;;;;;;11.87;100.00;99590.16;5053735;28;20231;-78
2022/10/05 08:44:44;;;;;;;49.70;28.37;;;;;;;12.01;100.00;99591.03;5051012;28;20220;-78
2022/10/05 08:47:47;;;;;;;44.07;27.43;;;;;;;12.00;100.00;99578.72;5049815;28;20306;-78
2022/10/05 08:50:31;;;;;;;50.07;29.23;;;;;;;12.04;100.00;99585.50;5021052;28;20232;-78
2022/10/05 08:53:20;;;;;;;48.77;29.47;;;;;;;12.06;100.00;99589.88;5020601;28;20201;-78
2022/10/05 08:56:23;;;;;;;45.23;26.97;;;;;;;12.26;100.00;99589.47;5042832;28;20224;-79
2022/10/05 08:59:29;;;;;;;45.80;27.57;;;;;;;12.22;100.00;99583.50;5024924;28;20391;-78
2022/10/05 09:02:17;;;;;;;46.37;27.83;;;;;;;12.34;100.00;99587.16;5034824;28;20228;-78
2022/10/05 09:05:02;;;;;;;44.17;27.93;;;;;;;12.49;100.00;99590.66;5071216;28;20203;-78
2022/10/05 09:08:07;;;;;;;44.17;28.57;;;;;;;12.56;100.00;99590.16;5067771;28;20212;-78
2022/10/05 09:10:58;;;;;;;41.93;27.20;;;;;;;12.66;100.00;99578.94;5065098;28;20258;-78
2022/10/05 09:14:10;;;;;;;46.57;28.17;;;;;;;12.59;100.00;99574.00;5065804;28;20403;-78
2022/10/05 09:17:10;;;;;;;43.30;27.00;;;;;;;12.61;100.00;99569.44;4993576;28;20202;-78
2022/10/05 09:20:06;;;;;;;42.27;27.00;;;;;;;12.72;100.00;99560.75;4989902;28;20188;-78
2022/10/05 09:22:37;;;;;;;37.73;25.30;;;;;;;12.87;100.00;99569.53;5047952;28;20204;-79
2022/10/05 09:25:38;;;;;;;40.37;27.10;;;;;;;12.71;100.00;99572.34;5115496;28;20236;-78
2022/10/05 09:28:23;;;;;;;39.77;26.97;;;;;;;12.65;100.00;99559.47;5114196;28;20218;-78
2022/10/05 09:31:27;;;;;;;35.83;25.17;;;;;;;12.84;100.00;99559.94;5114217;28;20205;-78
2022/10/05 09:34:37;;;;;;;37.10;25.53;;;;;;;12.90;100.00;99556.00;5110296;28;20195;-77
2022/10/05 09:37:40;;;;;;;36.23;25.07;;;;;;;12.89;100.00;99555.16;5100625;27;20199;-78
2022/10/05 09:40:47;;;;;;;35.30;24.37;;;;;;;13.10;100.00;99560.84;5111430;28;20263;-78
2022/10/05 09:43:42;;;;;;;34.37;24.00;;;;;;;13.18;100.00;99550.53;5117024;27;20183;-78
2022/10/05 09:46:43;;;;;;;31.80;22.60;;;;;;;13.42;100.00;99552.50;5112288;28;20666;-78
2022/10/05 09:49:43;;;;;;;35.30;23.20;;;;;;;13.83;100.00;99538.94;5078974;28;20222;-78
2022/10/05 09:52:22;;;;;;;32.10;21.77;;;;;;;13.88;100.00;99534.13;5111791;27;20199;-78
2022/10/05 09:55:24;;;;;;;34.70;22.47;;;;;;;13.81;100.00;99529.38;5112591;28;20202;-78
2022/10/05 09:58:52;;;;;;;30.23;21.83;;;;;;;13.49;100.00;99523.63;5110637;28;20205;-78
2022/10/05 10:01:36;;;;;;;31.57;20.17;;;;;;;13.64;100.00;99512.78;5114677;28;20201;-78
2022/10/05 10:04:32;;;;;;;29.43;21.07;;;;;;;13.91;100.00;99509.97;5115319;27;20251;-79
2022/10/05 10:07:36;;;;;;;27.27;19.13;;;;;;;14.13;100.00;99495.06;5112067;28;20315;-78
2022/10/05 10:10:28;;;;;;;27.50;18.83;;;;;;;14.10;100.00;99490.81;5113008;28;20222;-78
2022/10/05 10:13:25;;;;;;;28.83;19.60;;;;;;;14.06;100.00;99484.00;5113100;28;20187;-78
2022/10/05 10:16:11;;;;;;;28.07;19.80;;;;;;;13.81;100.00;99479.63;5114545;28;20222;-78
2022/10/05 10:19:02;;;;;;;30.57;21.23;;;;;;;13.87;100.00;99486.31;5111431;28;20195;-79
2022/10/05 10:22:25;;;;;;;31.47;21.93;;;;;;;14.27;100.00;99474.44;5110946;28;20247;-78
2022/10/05 10:25:30;;;;;;;25.60;18.60;;;;;;;14.83;100.00;99468.50;5071836;28;20246;-78
2022/10/05 10:28:16;;;;;;;21.10;17.27;;;;;;;14.86;100.00;99460.25;5069370;28;20253;-78
2022/10/05 10:31:11;;;;;;;24.13;17.33;;;;;;;15.00;100.00;99451.19;5099710;28;20202;-78
2022/10/05 10:34:03;;;;;;;24.13;17.13;;;;;;;15.35;100.00;99435.94;5114164;28;20187;-78
2022/10/05 10:36:46;;;;;;;22.57;16.53;;;;;;;15.86;100.00;99439.94;5114022;28;20661;-78
2022/10/05 10:39:21;;;;;;;22.43;17.30;;;;;;;15.57;100.00;99421.72;5113904;28;20187;-78
2022/10/05 10:42:28;;;;;;;19.33;14.87;;;;;;;15.42;100.00;99418.44;5113342;28;20259;-78
2022/10/05 10:45:15;;;;;;;21.50;16.60;;;;;;;15.78;100.00;99411.16;5113696;28;20251;-79
2022/10/05 10:48:03;;;;;;;22.37;15.33;;;;;;;15.81;100.00;99400.22;5111101;28;20203;-78
2022/10/05 10:50:57;;;;;;;18.07;14.30;;;;;;;16.14;100.00;99409.97;5113858;28;20229;-78
2022/10/05 10:53:52;;;;;;;20.33;15.37;;;;;;;16.44;100.00;99395.00;5113930;28;20229;-78
2022/10/05 10:56:36;;;;;;;19.03;13.80;;;;;;;16.28;100.00;99390.94;5110147;28;20198;-78
2022/10/05 10:59:55;;;;;;;17.83;13.83;;;;;;;16.41;100.00;99382.75;5109437;28;20195;-78
2022/10/05 11:02:56;;;;;;;17.27;14.07;;;;;;;16.67;100.00;99390.38;5071231;28;20733;-78
2022/10/05 11:09:21;;;;;;;19.17;13.33;;;;;;;17.12;100.00;99377.56;5095246;28;20222;-79
2022/10/05 11:12:37;;;;;;;15.37;12.13;;;;;;;17.42;100.00;99372.16;5090933;28;20344;-79
2022/10/05 11:15:25;;;;;;;19.33;13.20;;;;;;;17.31;100.00;99372.28;5093470;28;20195;-78
2022/10/05 11:18:11;;;;;;;13.83;11.33;;;;;;;17.64;100.00;99362.22;5092961;28;20188;-79
2022/10/05 11:21:04;;;;;;;16.20;11.87;;;;;;;17.83;100.00;99359.59;5092992;28;20276;-79
2022/10/05 11:24:20;;;;;;;16.80;11.83;;;;;;;17.98;100.00;99349.31;5093125;28;20195;-79
2022/10/05 11:27:12;;;;;;;15.50;11.20;;;;;;;18.18;100.00;99339.44;5070209;28;20203;-79
2022/10/05 11:30:02;;;;;;;14.87;11.47;;;;;;;17.93;100.00;99352.41;5091743;28;20265;-79
2022/10/05 11:33:10;;;;;;;13.20;11.57;;;;;;;17.61;100.00;99349.09;5090570;28;20195;-79
2022/10/05 11:36:09;;;;;;;13.83;11.43;;;;;;;17.62;100.00;99337.41;5090863;28;20219;-79
2022/10/05 11:39:22;;;;;;;12.83;11.20;;;;;;;17.68;100.00;99347.56;5038326;28;20402;-79
2022/10/05 11:42:18;;;;;;;12.23;10.47;;;;;;;17.78;100.00;99335.06;5065570;28;20199;-79
2022/10/05 11:45:22;;;;;;;15.03;10.30;;;;;;;17.96;100.00;99321.81;5084071;28;20200;-79
2022/10/05 11:48:16;;;;;;;12.87;9.13;;;;;;;18.08;100.00;99320.69;5084845;28;20207;-79
2022/10/05 11:50:59;;;;;;;11.30;9.10;;;;;;;17.90;100.00;99319.69;5030550;28;20242;-79
2022/10/05 11:53:38;;;;;;;10.57;8.07;;;;;;;18.14;100.00;99313.88;5037300;28;20663;-79
2022/10/05 11:56:14;;;;;;;10.40;8.00;;;;;;;18.48;100.00;99319.63;5046885;28;20196;-79
2022/10/05 11:58:50;;;;;;;10.67;7.67;;;;;;;18.70;100.00;99307.75;5046426;28;20737;-79
2022/10/05 12:01:30;;;;;;;9.37;7.70;;;;;;;18.91;100.00;99316.41;5019255;28;20196;-79
2022/10/05 12:04:13;;;;;;;8.27;6.60;;;;;;;19.12;100.00;99309.00;5052462;28;20205;-79
2022/10/05 12:07:06;;;;;;;10.60;7.00;;;;;;;18.90;100.00;99304.00;5049855;28;20204;-79
2022/10/05 12:12:50;;;;;;;7.63;6.20;;;;;;;18.20;100.00;99297.25;5095329;28;20192;-79
2022/10/05 12:15:25;;;;;;;6.97;5.77;;;;;;;18.92;100.00;99298.50;5096599;28;20241;-79
2022/10/05 12:18:03;;;;;;;6.80;6.07;;;;;;;19.04;100.00;99303.53;5094031;28;20194;-79
2022/10/05 12:20:39;;;;;;;6.87;5.87;;;;;;;19.29;100.00;99303.81;5094718;28;20235;-79
2022/10/05 12:23:18;;;;;;;7.97;5.70;;;;;;;19.23;100.00;99291.00;5096536;28;20198;-79
2022/10/05 12:25:54;;;;;;;6.93;5.77;;;;;;;18.96;100.00;99292.69;5095226;28;20655;-79
2022/10/05 12:28:29;;;;;;;10.63;6.90;;;;;;;19.33;100.00;99295.31;5094963;28;20188;-80
2022/10/05 12:31:07;;;;;;;7.30;6.57;;;;;;;19.41;100.00;99290.03;5092183;28;20294;-79
2022/10/05 12:33:44;;;;;;;9.07;7.33;;;;;;;19.81;100.00;99280.72;5096139;28;20187;-79
2022/10/05 12:36:15;;;;;;;8.23;6.70;;;;;;;19.65;100.00;99285.94;5074118;28;20203;-80